createdAt,value
2018-12-23T00:00:43.837Z,8.47
2018-12-23T00:02:14.275Z,8.50
2018-12-23T00:03:44.196Z,8.56
2018-12-23T00:05:14.311Z,8.50
2018-12-23T00:06:44.262Z,8.52
2018-12-23T00:08:14.170Z,8.62
2018-12-23T00:09:44.094Z,8.59
2018-12-23T00:11:14.347Z,8.65
2018-12-23T00:12:44.385Z,8.56
2018-12-23T00:14:14.418Z,8.60
2018-12-23T00:15:44.348Z,8.68
2018-12-23T00:17:14.290Z,8.73
2018-12-23T00:18:44.349Z,8.82
2018-12-23T00:20:14.275Z,8.83
2018-12-23T00:21:44.322Z,8.81
2018-12-23T00:23:14.223Z,8.84
2018-12-23T00:24:44.175Z,8.91
2018-12-23T00:26:14.354Z,8.91
2018-12-23T00:27:44.781Z,8.82
2018-12-23T00:29:15.422Z,8.76
2018-12-23T00:30:45.949Z,8.70
2018-12-23T00:32:16.361Z,8.74
2018-12-23T00:33:49.119Z,8.73
2018-12-23T00:35:20.652Z,8.77
2018-12-23T00:36:50.867Z,8.77
2018-12-23T00:38:21.123Z,8.78
2018-12-23T00:39:51.951Z,8.80
2018-12-23T00:41:23.206Z,8.78
2018-12-23T00:42:53.215Z,8.82
2018-12-23T00:44:23.219Z,8.89
2018-12-23T00:45:56.129Z,8.91
2018-12-23T00:47:26.089Z,8.92
2018-12-23T00:48:56.120Z,8.89
2018-12-23T00:50:26.211Z,8.82
2018-12-23T00:51:56.382Z,8.73
2018-12-23T00:53:26.355Z,8.74
2018-12-23T00:54:56.298Z,8.78
2018-12-23T00:56:26.223Z,8.64
2018-12-23T00:57:56.305Z,8.54
2018-12-23T00:59:26.414Z,8.56
2018-12-23T01:00:56.561Z,8.56
2018-12-23T01:02:26.642Z,8.56
2018-12-23T01:03:56.668Z,8.45
2018-12-23T01:05:28.888Z,8.38
2018-12-23T01:06:58.718Z,8.18
2018-12-23T01:08:28.685Z,8.16
2018-12-23T01:09:58.870Z,8.18
2018-12-23T01:11:28.861Z,8.13
2018-12-23T01:12:58.999Z,8.12
2018-12-23T01:14:28.980Z,8.02
2018-12-23T01:15:59.071Z,7.99
2018-12-23T01:17:29.031Z,7.94
2018-12-23T01:18:58.991Z,7.92
2018-12-23T01:20:28.943Z,7.85
2018-12-23T01:21:59.028Z,7.72
2018-12-23T01:23:29.014Z,7.68
2018-12-23T01:24:59.240Z,7.70
2018-12-23T01:26:29.378Z,7.66
2018-12-23T01:27:59.659Z,7.70
2018-12-23T01:29:31.671Z,7.64
2018-12-23T01:31:01.818Z,7.58
2018-12-23T01:32:31.915Z,7.56
2018-12-23T01:34:01.872Z,7.70
2018-12-23T01:35:37.206Z,7.73
2018-12-23T01:37:04.321Z,7.74
2018-12-23T01:38:34.429Z,7.67
2018-12-23T01:40:05.098Z,7.62
2018-12-23T01:41:35.331Z,7.60
2018-12-23T01:43:05.727Z,7.56
2018-12-23T01:44:36.151Z,7.26
2018-12-23T01:46:06.580Z,7.17
2018-12-23T01:47:40.328Z,7.16
2018-12-23T01:49:12.512Z,7.14
2018-12-23T01:50:44.778Z,7.03
2018-12-23T01:52:17.482Z,7.03
2018-12-23T01:53:49.658Z,6.99
2018-12-23T01:55:22.027Z,6.94
2018-12-23T01:56:54.075Z,6.91
2018-12-23T01:58:24.687Z,6.78
2018-12-23T01:59:55.307Z,6.82
2018-12-23T02:01:25.771Z,6.77
2018-12-23T02:02:58.240Z,6.67
2018-12-23T02:04:28.642Z,6.73
2018-12-23T02:05:59.376Z,6.78
2018-12-23T02:07:31.848Z,6.82
2018-12-23T02:09:05.727Z,6.83
2018-12-23T02:10:38.232Z,6.83
2018-12-23T02:12:10.468Z,6.84
2018-12-23T02:13:40.948Z,6.80
2018-12-23T02:15:13.478Z,6.75
2018-12-23T02:16:44.291Z,6.75
2018-12-23T02:18:18.532Z,6.78
2018-12-23T02:19:49.114Z,6.78
2018-12-23T02:21:21.219Z,6.79
2018-12-23T02:22:51.955Z,6.77
2018-12-23T02:24:22.466Z,6.78
2018-12-23T02:25:54.858Z,6.81
2018-12-23T02:27:25.927Z,6.81
2018-12-23T02:28:58.428Z,6.86
2018-12-23T02:30:33.876Z,6.82
2018-12-23T02:32:04.544Z,6.81
2018-12-23T02:33:35.303Z,6.84
2018-12-23T02:35:07.691Z,6.87
2018-12-23T02:36:38.334Z,6.86
2018-12-23T02:38:12.562Z,6.89
2018-12-23T02:39:45.193Z,6.82
2018-12-23T02:41:17.076Z,6.83
2018-12-23T02:42:47.645Z,6.89
2018-12-23T02:44:18.446Z,6.84
2018-12-23T02:45:50.579Z,6.86
2018-12-23T02:47:22.668Z,6.89
2018-12-23T02:48:57.665Z,6.90
2018-12-23T02:50:28.681Z,6.89
2018-12-23T02:51:59.711Z,6.92
2018-12-23T02:53:31.220Z,6.93
2018-12-23T02:55:03.752Z,6.95
2018-12-23T02:56:36.022Z,7.04
2018-12-23T02:58:06.800Z,6.91
2018-12-23T02:59:39.349Z,6.87
2018-12-23T03:01:09.648Z,6.91
2018-12-23T03:02:40.247Z,6.86
2018-12-23T03:04:10.811Z,6.99
2018-12-23T03:05:41.590Z,6.98
2018-12-23T03:07:13.971Z,6.92
2018-12-23T03:08:46.574Z,6.86
2018-12-23T03:10:18.372Z,6.88
2018-12-23T03:16:38.883Z,7.01
2018-12-23T03:18:09.232Z,7.08
2018-12-23T03:19:39.441Z,7.13
2018-12-23T03:21:09.546Z,7.17
2018-12-23T03:22:40.085Z,7.28
2018-12-23T03:24:10.617Z,7.28
2018-12-23T03:25:40.715Z,7.28
2018-12-23T03:27:11.057Z,7.29
2018-12-23T03:28:41.305Z,7.34
2018-12-23T03:30:11.477Z,7.31
2018-12-23T03:31:41.866Z,7.34
2018-12-23T03:33:12.042Z,7.42
2018-12-23T03:34:42.389Z,7.53
2018-12-23T03:36:15.285Z,7.64
2018-12-23T03:37:44.847Z,7.71
2018-12-23T03:39:15.219Z,7.72
2018-12-23T03:40:45.667Z,7.79
2018-12-23T03:42:15.827Z,7.80
2018-12-23T03:43:46.184Z,7.80
2018-12-23T03:45:16.142Z,7.80
2018-12-23T03:46:46.437Z,7.83
2018-12-23T03:48:16.544Z,7.94
2018-12-23T03:49:46.732Z,7.91
2018-12-23T03:51:16.825Z,7.93
2018-12-23T03:52:47.065Z,7.96
2018-12-23T03:54:19.312Z,7.98
2018-12-23T03:55:50.674Z,7.96
2018-12-23T03:57:21.256Z,7.95
2018-12-23T03:58:51.460Z,7.93
2018-12-23T04:00:21.849Z,7.95
2018-12-23T04:01:52.264Z,7.90
2018-12-23T04:03:22.969Z,7.88
2018-12-23T04:04:53.353Z,7.85
2018-12-23T04:06:24.707Z,7.85
2018-12-23T04:07:55.438Z,7.83
2018-12-23T04:09:25.822Z,7.86
2018-12-23T04:10:56.360Z,7.89
2018-12-23T04:12:28.930Z,7.87
2018-12-23T04:13:59.463Z,7.98
2018-12-23T04:15:30.159Z,7.85
2018-12-23T04:17:02.399Z,7.88
2018-12-23T04:18:35.019Z,7.86
2018-12-23T04:20:05.802Z,7.89
2018-12-23T04:21:38.182Z,7.88
2018-12-23T04:23:10.075Z,7.92
2018-12-23T04:24:42.650Z,7.89
2018-12-23T04:26:13.825Z,7.86
2018-12-23T04:27:44.130Z,7.86
2018-12-23T04:29:14.782Z,7.88
2018-12-23T04:30:46.606Z,7.91
2018-12-23T04:32:17.043Z,7.95
2018-12-23T04:33:49.153Z,8.03
2018-12-23T04:35:21.498Z,7.94
2018-12-23T04:36:51.903Z,7.96
2018-12-23T04:38:23.698Z,7.94
2018-12-23T04:39:55.894Z,8.03
2018-12-23T04:41:26.439Z,8.02
2018-12-23T04:42:56.552Z,8.04
2018-12-23T04:44:28.860Z,7.89
2018-12-23T04:45:59.332Z,7.88
2018-12-23T04:47:29.751Z,7.88
2018-12-23T04:49:00.618Z,7.89
2018-12-23T04:50:33.058Z,7.86
2018-12-23T04:52:03.232Z,7.83
2018-12-23T04:53:33.583Z,7.88
2018-12-23T04:55:05.918Z,7.87
2018-12-23T04:56:38.112Z,7.76
2018-12-23T04:58:08.563Z,7.77
2018-12-23T04:59:39.441Z,7.82
2018-12-23T05:01:09.703Z,7.83
2018-12-23T05:02:46.063Z,7.85
2018-12-23T05:04:16.454Z,7.94
2018-12-23T05:05:48.887Z,7.96
2018-12-23T05:07:21.162Z,7.92
2018-12-23T05:08:51.803Z,8.03
2018-12-23T05:10:23.987Z,8.04
2018-12-23T05:11:54.076Z,8.01
2018-12-23T05:13:26.546Z,8.03
2018-12-23T05:14:58.656Z,7.95
2018-12-23T05:16:31.382Z,7.94
2018-12-23T05:18:04.063Z,7.89
2018-12-23T05:19:36.712Z,7.94
2018-12-23T05:21:08.848Z,7.85
2018-12-23T05:22:39.423Z,7.83
2018-12-23T05:24:10.012Z,7.89
2018-12-23T05:25:40.685Z,7.87
2018-12-23T05:27:11.268Z,7.84
2018-12-23T05:28:41.810Z,7.78
2018-12-23T05:30:12.392Z,7.92
2018-12-23T05:31:43.034Z,7.90
2018-12-23T05:33:13.607Z,7.92
2018-12-23T05:34:44.467Z,7.86
2018-12-23T05:36:16.575Z,7.92
2018-12-23T05:37:47.387Z,7.93
2018-12-23T05:39:17.816Z,7.87
2018-12-23T05:40:51.406Z,7.94
2018-12-23T05:42:23.562Z,7.95
2018-12-23T05:43:54.128Z,7.88
2018-12-23T05:45:24.593Z,7.91
2018-12-23T05:46:58.714Z,7.99
2018-12-23T05:48:31.112Z,7.99
2018-12-23T05:50:01.672Z,7.95
2018-12-23T05:51:32.318Z,7.95
2018-12-23T05:53:02.916Z,7.93
2018-12-23T05:54:33.370Z,7.92
2018-12-23T05:56:05.592Z,7.91
2018-12-23T05:57:38.083Z,7.86
2018-12-23T05:59:10.517Z,7.94
2018-12-23T06:00:42.605Z,7.95
2018-12-23T06:02:14.948Z,7.89
2018-12-23T06:03:45.833Z,7.87
2018-12-23T06:05:15.980Z,7.80
2018-12-23T06:06:48.064Z,7.76
2018-12-23T06:08:20.258Z,7.79
2018-12-23T06:09:51.041Z,7.86
2018-12-23T06:11:23.633Z,7.86
2018-12-23T06:12:53.879Z,7.86
2018-12-23T06:14:24.245Z,7.80
2018-12-23T06:15:55.176Z,7.86
2018-12-23T06:17:25.795Z,7.92
2018-12-23T06:18:56.182Z,7.99
2018-12-23T06:20:26.712Z,8.05
2018-12-23T06:21:58.823Z,8.13
2018-12-23T06:23:29.286Z,8.15
2018-12-23T06:24:59.691Z,8.16
2018-12-23T06:26:32.447Z,8.16
2018-12-23T06:28:02.550Z,8.18
2018-12-23T06:29:34.600Z,8.24
2018-12-23T06:31:04.718Z,8.14
2018-12-23T06:32:34.991Z,8.17
2018-12-23T06:34:05.340Z,8.21
2018-12-23T06:35:35.805Z,8.20
2018-12-23T06:37:10.283Z,8.19
2018-12-23T06:38:40.355Z,8.20
2018-12-23T06:40:12.732Z,8.26
2018-12-23T06:41:42.881Z,8.22
2018-12-23T06:43:13.377Z,8.21
2018-12-23T06:44:43.786Z,8.23
2018-12-23T06:46:14.117Z,8.26
2018-12-23T06:47:44.473Z,8.22
2018-12-23T06:49:14.733Z,8.28
2018-12-23T06:50:46.809Z,8.22
2018-12-23T06:52:17.128Z,8.21
2018-12-23T06:53:47.148Z,8.20
2018-12-23T06:55:19.177Z,8.13
2018-12-23T06:56:49.826Z,8.10
2018-12-23T06:58:20.241Z,8.15
2018-12-23T06:59:50.492Z,8.08
2018-12-23T07:01:20.657Z,8.13
2018-12-23T07:02:52.964Z,8.14
2018-12-23T07:04:23.695Z,8.17
2018-12-23T07:05:54.157Z,8.21
2018-12-23T07:07:24.447Z,8.28
2018-12-23T07:08:54.735Z,8.25
2018-12-23T07:10:25.182Z,8.22
2018-12-23T07:11:55.356Z,8.22
2018-12-23T07:13:25.711Z,8.30
2018-12-23T07:14:56.302Z,8.33
2018-12-23T07:16:26.303Z,8.34
2018-12-23T07:17:56.396Z,8.40
2018-12-23T07:19:26.619Z,8.38
2018-12-23T07:20:56.859Z,8.37
2018-12-23T07:22:26.816Z,8.42
2018-12-23T07:23:56.948Z,8.46
2018-12-23T07:25:27.167Z,8.52
2018-12-23T07:26:57.567Z,8.48
2018-12-23T07:28:29.621Z,8.45
2018-12-23T07:29:59.896Z,8.51
2018-12-23T07:31:30.351Z,8.53
2018-12-23T07:33:00.626Z,8.47
2018-12-23T07:34:32.767Z,8.43
2018-12-23T07:36:03.110Z,8.40
2018-12-23T07:37:33.278Z,8.47
2018-12-23T07:39:05.427Z,8.41
2018-12-23T07:40:35.411Z,8.39
2018-12-23T07:42:05.700Z,8.36
2018-12-23T07:43:37.728Z,8.38
2018-12-23T07:45:10.394Z,8.40
2018-12-23T07:46:40.534Z,8.36
2018-12-23T07:48:10.529Z,8.34
2018-12-23T07:49:40.804Z,8.32
2018-12-23T07:51:10.776Z,8.43
2018-12-23T07:52:41.068Z,8.46
2018-12-23T07:54:11.874Z,8.45
2018-12-23T07:55:42.103Z,8.54
2018-12-23T07:57:13.462Z,8.55
2018-12-23T07:58:43.590Z,8.48
2018-12-23T08:00:14.360Z,8.50
2018-12-23T08:01:44.369Z,8.49
2018-12-23T08:03:14.939Z,8.61
2018-12-23T08:04:45.282Z,8.63
2018-12-23T08:06:15.517Z,8.63
2018-12-23T08:07:45.636Z,8.63
2018-12-23T08:09:16.014Z,8.70
2018-12-23T08:10:45.961Z,8.60
2018-12-23T08:12:16.039Z,8.61
2018-12-23T08:13:46.113Z,8.64
2018-12-23T08:15:16.307Z,8.73
2018-12-23T08:16:47.942Z,8.71
2018-12-23T08:19:04.231Z,8.87
2018-12-23T08:20:34.376Z,8.75
2018-12-23T08:22:05.960Z,8.73
2018-12-23T08:23:36.731Z,8.81
2018-12-23T08:25:07.361Z,8.79
2018-12-23T08:26:37.876Z,8.77
2018-12-23T08:28:08.400Z,8.78
2018-12-23T08:29:42.944Z,8.80
2018-12-23T08:31:13.588Z,8.69
2018-12-23T08:32:44.580Z,8.67
2018-12-23T08:34:14.764Z,8.66
2018-12-23T08:35:45.011Z,8.71
2018-12-23T08:37:15.417Z,8.83
2018-12-23T08:38:46.396Z,8.90
2018-12-23T08:41:17.333Z,8.99
2018-12-23T08:42:48.333Z,8.99
2018-12-23T08:44:55.346Z,9.04
2018-12-23T08:46:41.264Z,9.09
2018-12-23T08:48:24.606Z,9.12
2018-12-23T08:49:55.643Z,9.13
2018-12-23T08:51:26.577Z,9.08
2018-12-23T08:53:05.096Z,9.03
2018-12-23T08:54:41.639Z,9.08
2018-12-23T08:56:28.735Z,9.21
2018-12-23T08:57:59.196Z,9.18
2018-12-23T08:59:29.532Z,9.04
2018-12-23T09:01:06.204Z,9.08
2018-12-23T09:02:40.511Z,8.96
2018-12-23T09:04:18.492Z,8.96
2018-12-23T09:05:48.684Z,9.03
2018-12-23T09:07:19.056Z,9.06
2018-12-23T09:08:53.412Z,9.16
2018-12-23T09:10:23.632Z,9.19
2018-12-23T09:11:54.332Z,9.06
2018-12-23T09:13:24.380Z,9.06
2018-12-23T09:14:56.412Z,9.04
2018-12-23T09:16:30.019Z,9.09
2018-12-23T09:18:00.738Z,9.23
2018-12-23T09:19:31.344Z,9.27
2018-12-23T09:21:01.516Z,9.30
2018-12-23T09:22:32.550Z,9.36
2018-12-23T09:24:07.454Z,9.39
2018-12-23T09:25:38.577Z,9.31
2018-12-23T09:27:08.792Z,9.32
2018-12-23T09:28:38.982Z,9.31
2018-12-23T09:30:13.627Z,9.39
2018-12-23T09:31:48.470Z,9.36
2018-12-23T09:33:20.890Z,9.39
2018-12-23T09:34:51.065Z,9.44
2018-12-23T09:36:21.176Z,9.38
2018-12-23T09:37:51.547Z,9.35
2018-12-23T09:39:21.708Z,9.37
2018-12-23T09:40:51.869Z,9.26
2018-12-23T09:42:22.083Z,9.22
2018-12-23T09:43:52.418Z,9.21
2018-12-23T09:45:22.537Z,9.24
2018-12-23T09:46:52.801Z,9.35
2018-12-23T09:48:23.049Z,9.43
2018-12-23T09:49:53.492Z,9.54
2018-12-23T09:51:24.506Z,9.58
2018-12-23T09:52:55.205Z,9.57
2018-12-23T09:54:25.361Z,9.55
2018-12-23T09:55:56.088Z,9.50
2018-12-23T09:57:26.271Z,9.64
2018-12-23T09:58:56.644Z,9.66
2018-12-23T10:00:26.919Z,9.68
2018-12-23T10:02:09.243Z,9.66
2018-12-23T10:03:39.466Z,9.68
2018-12-23T10:05:12.699Z,9.69
2018-12-23T10:06:42.881Z,9.64
2018-12-23T10:08:13.000Z,9.58
2018-12-23T10:09:43.191Z,9.55
2018-12-23T10:11:13.377Z,9.57
2018-12-23T10:12:43.445Z,9.59
2018-12-23T10:14:14.710Z,9.67
2018-12-23T10:15:44.970Z,9.60
2018-12-23T10:17:15.518Z,9.51
2018-12-23T10:18:45.715Z,9.51
2018-12-23T10:20:15.936Z,9.51
2018-12-23T10:21:46.138Z,9.61
2018-12-23T10:23:16.620Z,9.64
2018-12-23T10:24:46.835Z,9.62
2018-12-23T10:26:17.529Z,9.72
2018-12-23T10:27:47.979Z,9.75
2018-12-23T10:29:18.230Z,9.80
2018-12-23T10:30:48.334Z,9.83
2018-12-23T10:32:18.640Z,9.85
2018-12-23T10:33:48.829Z,9.92
2018-12-23T10:35:19.065Z,9.99
2018-12-23T10:36:49.012Z,9.88
2018-12-23T10:38:19.054Z,9.82
2018-12-23T10:39:49.417Z,9.81
2018-12-23T10:41:19.521Z,9.75
2018-12-23T10:42:50.133Z,9.85
2018-12-23T10:44:20.487Z,9.89
2018-12-23T10:45:50.720Z,9.92
2018-12-23T10:47:20.801Z,9.89
2018-12-23T10:50:36.198Z,9.98
2018-12-23T10:52:06.245Z,9.87
2018-12-23T10:53:36.394Z,9.83
2018-12-23T10:55:06.832Z,9.87
2018-12-23T10:56:36.774Z,9.88
2018-12-23T10:58:06.823Z,9.90
2018-12-23T10:59:36.908Z,10.00
2018-12-23T11:01:07.246Z,9.97
2018-12-23T11:02:37.449Z,10.00
2018-12-23T11:04:07.893Z,10.00
2018-12-23T11:05:38.437Z,10.01
2018-12-23T11:07:08.392Z,10.04
2018-12-23T11:08:38.680Z,9.97
2018-12-23T11:10:09.122Z,9.98
2018-12-23T11:11:39.434Z,9.96
2018-12-23T11:13:09.597Z,9.97
2018-12-23T11:14:39.800Z,10.05
2018-12-23T11:16:09.954Z,10.14
2018-12-23T11:17:40.315Z,10.09
2018-12-23T11:19:10.351Z,9.95
2018-12-23T11:20:40.544Z,9.88
2018-12-23T11:22:10.841Z,9.90
2018-12-23T11:23:41.236Z,9.98
2018-12-23T11:25:11.320Z,9.96
2018-12-23T11:26:41.523Z,9.89
2018-12-23T11:28:11.774Z,9.79
2018-12-23T11:29:42.025Z,9.83
2018-12-23T11:31:12.167Z,9.92
2018-12-23T11:32:42.493Z,9.92
2018-12-23T11:34:12.709Z,9.99
2018-12-23T11:35:42.971Z,9.82
2018-12-23T11:37:13.292Z,9.74
2018-12-23T11:38:43.679Z,9.73
2018-12-23T11:40:13.684Z,9.76
2018-12-23T11:41:43.754Z,9.69
2018-12-23T11:43:13.711Z,9.76
2018-12-23T11:44:44.095Z,9.82
2018-12-23T11:46:17.125Z,9.75
2018-12-23T11:47:47.221Z,9.69
2018-12-23T11:49:17.276Z,9.64
2018-12-23T11:50:47.533Z,9.63
2018-12-23T11:52:17.883Z,9.60
2018-12-23T11:53:48.024Z,9.52
2018-12-23T11:55:18.113Z,9.55
2018-12-23T11:56:48.055Z,9.50
2018-12-23T11:58:18.112Z,9.40
2018-12-23T11:59:48.110Z,9.38
2018-12-23T12:01:18.161Z,9.50
2018-12-23T12:02:48.221Z,9.54
2018-12-23T12:04:18.532Z,9.50
2018-12-23T12:05:48.534Z,9.48
2018-12-23T12:07:18.594Z,9.51
2018-12-23T12:08:48.760Z,9.46
2018-12-23T12:10:19.227Z,9.42
2018-12-23T12:11:50.975Z,9.39
2018-12-23T12:13:21.059Z,9.37
2018-12-23T12:14:51.365Z,9.44
2018-12-23T12:16:21.613Z,9.41
2018-12-23T12:17:51.695Z,9.28
2018-12-23T12:19:21.757Z,9.25
2018-12-23T12:20:51.863Z,9.23
2018-12-23T12:22:22.031Z,9.27
2018-12-23T12:23:52.331Z,9.29
2018-12-23T12:25:22.423Z,9.33
2018-12-23T12:26:52.783Z,9.44
2018-12-23T12:28:22.836Z,9.39
2018-12-23T12:29:52.779Z,9.33
2018-12-23T12:31:22.773Z,9.29
2018-12-23T12:32:52.849Z,9.37
2018-12-23T12:34:23.276Z,9.38
2018-12-23T12:35:53.576Z,9.30
2018-12-23T12:37:23.618Z,9.27
2018-12-23T12:38:53.672Z,9.26
2018-12-23T12:40:24.142Z,9.27
2018-12-23T12:41:54.210Z,9.34
2018-12-23T12:43:24.266Z,9.38
2018-12-23T12:44:54.482Z,9.33
2018-12-23T12:46:24.819Z,9.12
2018-12-23T12:47:54.972Z,9.05
2018-12-23T12:49:25.133Z,9.06
2018-12-23T12:50:55.361Z,9.05
2018-12-23T12:52:25.776Z,9.15
2018-12-23T12:53:56.087Z,9.11
2018-12-23T12:55:26.164Z,9.10
2018-12-23T12:56:56.359Z,8.99
2018-12-23T12:58:26.800Z,8.95
2018-12-23T12:59:57.510Z,8.99
2018-12-23T13:01:27.486Z,8.96
2018-12-23T13:02:57.672Z,8.96
2018-12-23T13:04:27.832Z,8.87
2018-12-23T13:05:58.024Z,8.76
2018-12-23T13:07:28.203Z,8.73
2018-12-23T13:09:00.571Z,8.69
2018-12-23T13:10:30.705Z,8.68
2018-12-23T13:12:00.913Z,8.58
2018-12-23T13:13:31.114Z,8.60
2018-12-23T13:15:01.436Z,8.68
2018-12-23T13:16:31.676Z,8.62
2018-12-23T13:18:01.990Z,8.64
2018-12-23T13:19:32.503Z,8.66
2018-12-23T13:21:02.831Z,8.63
2018-12-23T13:22:33.026Z,8.67
2018-12-23T13:24:03.215Z,8.61
2018-12-23T13:25:33.525Z,8.66
2018-12-23T13:27:03.847Z,8.69
2018-12-23T13:28:34.090Z,8.58
2018-12-23T13:30:04.904Z,8.47
2018-12-23T13:31:35.182Z,8.52
2018-12-23T13:33:05.415Z,8.59
2018-12-23T13:34:35.815Z,8.62
2018-12-23T13:36:08.015Z,8.66
2018-12-23T13:37:38.415Z,8.66
2018-12-23T13:39:10.802Z,8.66
2018-12-23T13:41:01.335Z,8.67
2018-12-23T13:43:16.313Z,8.74
2018-12-23T13:45:30.588Z,8.82
2018-12-23T13:47:48.413Z,8.81
2018-12-23T13:49:56.477Z,8.78
2018-12-23T13:51:49.367Z,8.70
2018-12-23T13:54:19.830Z,8.67
2018-12-23T13:56:06.100Z,8.76
2018-12-23T13:58:27.188Z,8.62
2018-12-23T14:00:27.645Z,8.66
2018-12-23T14:02:41.630Z,8.73
2018-12-23T14:04:37.992Z,8.70
2018-12-23T14:06:49.289Z,8.55
2018-12-23T14:09:17.392Z,8.56
2018-12-23T14:11:27.506Z,8.61
2018-12-23T14:12:59.605Z,8.59
2018-12-23T14:14:29.938Z,8.63
2018-12-23T14:16:00.142Z,8.67
2018-12-23T14:17:30.459Z,8.66
2018-12-23T14:19:16.119Z,8.69
2018-12-23T14:20:46.316Z,8.66
2018-12-23T14:22:16.756Z,8.61
2018-12-23T14:23:46.997Z,8.56
2018-12-23T14:25:17.544Z,8.56
2018-12-23T14:26:47.733Z,8.55
2018-12-23T14:28:17.961Z,8.51
2018-12-23T14:29:48.399Z,8.50
2018-12-23T14:31:19.235Z,8.54
2018-12-23T14:32:49.542Z,8.54
2018-12-23T14:34:19.821Z,8.57
2018-12-23T14:35:50.088Z,8.51
2018-12-23T14:37:20.274Z,8.48
2018-12-23T14:38:50.953Z,8.51
2018-12-23T14:40:21.193Z,8.50
2018-12-23T14:41:51.395Z,8.49
2018-12-23T14:43:21.975Z,8.47
2018-12-23T14:44:52.380Z,8.45
2018-12-23T14:46:22.644Z,8.48
2018-12-23T14:47:52.973Z,8.45
2018-12-23T14:49:26.197Z,8.51
2018-12-23T14:50:56.397Z,8.52
2018-12-23T14:52:26.590Z,8.59
2018-12-23T14:53:56.722Z,8.69
2018-12-23T14:55:26.963Z,8.67
2018-12-23T14:56:57.027Z,8.61
2018-12-23T14:58:27.435Z,8.48
2018-12-23T14:59:57.698Z,8.58
2018-12-23T15:01:27.645Z,8.58
2018-12-23T15:02:57.839Z,8.56
2018-12-23T15:04:28.031Z,8.50
2018-12-23T15:05:58.496Z,8.46
2018-12-23T15:07:28.813Z,8.43
2018-12-23T15:08:59.103Z,8.42
2018-12-23T15:10:47.775Z,8.48
2018-12-23T15:12:17.853Z,8.55
2018-12-23T15:13:48.059Z,8.52
2018-12-23T15:15:18.257Z,8.52
2018-12-23T15:16:48.593Z,8.52
2018-12-23T15:18:19.164Z,8.53
2018-12-23T15:19:49.343Z,8.57
2018-12-23T15:21:19.739Z,8.57
2018-12-23T15:22:49.902Z,8.53
2018-12-23T15:24:20.062Z,8.56
2018-12-23T15:25:50.634Z,8.52
2018-12-23T15:27:21.182Z,8.50
2018-12-23T15:28:51.585Z,8.54
2018-12-23T15:30:21.754Z,8.57
2018-12-23T15:31:51.808Z,8.63
2018-12-23T15:33:21.979Z,8.65
2018-12-23T15:34:52.184Z,8.59
2018-12-23T15:36:22.602Z,8.67
2018-12-23T15:37:53.744Z,8.70
2018-12-23T15:39:24.209Z,8.63
2018-12-23T15:40:54.438Z,8.63
2018-12-23T15:42:24.888Z,8.73
2018-12-23T15:43:55.240Z,8.77
2018-12-23T15:45:25.392Z,8.82
2018-12-23T15:46:55.577Z,8.84
2018-12-23T15:48:25.642Z,8.89
2018-12-23T15:49:56.118Z,8.94
2018-12-23T15:51:26.196Z,8.98
2018-12-23T15:52:56.537Z,8.89
2018-12-23T15:54:26.619Z,8.81
2018-12-23T15:55:56.833Z,8.88
2018-12-23T15:57:26.996Z,8.86
2018-12-23T15:58:57.062Z,8.81
2018-12-23T16:00:27.123Z,8.80
2018-12-23T16:01:57.582Z,8.87
2018-12-23T16:03:27.930Z,8.87
2018-12-23T16:04:58.115Z,8.89
2018-12-23T16:06:28.321Z,9.04
2018-12-23T16:07:58.492Z,9.08
2018-12-23T16:09:28.657Z,8.96
2018-12-23T16:10:58.877Z,8.89
2018-12-23T16:12:29.061Z,8.87
2018-12-23T16:13:59.649Z,8.90
2018-12-23T16:15:29.720Z,9.03
2018-12-23T16:16:59.921Z,9.05
2018-12-23T16:18:30.084Z,9.04
2018-12-23T16:20:00.413Z,9.16
2018-12-23T16:21:30.551Z,9.19
2018-12-23T16:23:00.718Z,9.22
2018-12-23T16:24:30.880Z,9.25
2018-12-23T16:26:01.435Z,9.18
2018-12-23T16:27:31.576Z,9.26
2018-12-23T16:29:01.958Z,9.29
2018-12-23T16:30:32.343Z,9.34
2018-12-23T16:32:02.641Z,9.32
2018-12-23T16:33:33.022Z,9.34
2018-12-23T16:35:03.290Z,9.38
2018-12-23T16:36:33.626Z,9.41
2018-12-23T16:38:03.834Z,9.42
2018-12-23T16:39:33.988Z,9.43
2018-12-23T16:41:04.144Z,9.42
2018-12-23T16:42:34.533Z,9.46
2018-12-23T16:44:04.714Z,9.48
2018-12-23T16:45:34.898Z,9.46
2018-12-23T16:47:05.121Z,9.46
2018-12-23T16:48:35.212Z,9.55
2018-12-23T16:50:06.535Z,9.62
2018-12-23T16:51:36.649Z,9.57
2018-12-23T16:53:06.956Z,9.62
2018-12-23T16:54:37.101Z,9.72
2018-12-23T16:56:07.541Z,9.76
2018-12-23T16:57:37.744Z,9.77
2018-12-23T16:59:07.898Z,9.85
2018-12-23T17:00:38.073Z,9.83
2018-12-23T17:02:08.219Z,9.79
2018-12-23T17:03:38.693Z,9.84
2018-12-23T17:05:09.229Z,9.84
2018-12-23T17:06:39.542Z,9.86
2018-12-23T17:08:09.608Z,9.89
2018-12-23T17:09:39.782Z,9.84
2018-12-23T17:11:09.958Z,9.89
2018-12-23T17:12:40.239Z,9.80
2018-12-23T17:14:10.791Z,9.74
2018-12-23T17:15:41.011Z,9.90
2018-12-23T17:17:26.597Z,9.92
2018-12-23T17:18:56.810Z,10.03
2018-12-23T17:20:33.130Z,10.02
2018-12-23T17:22:03.662Z,9.97
2018-12-23T17:23:33.859Z,9.98
2018-12-23T17:25:04.348Z,10.02
2018-12-23T17:26:34.552Z,9.99
2018-12-23T17:28:56.734Z,10.05
2018-12-23T17:30:26.944Z,10.11
2018-12-23T17:31:57.694Z,10.10
2018-12-23T17:33:27.870Z,10.16
2018-12-23T17:34:58.079Z,10.13
2018-12-23T17:36:28.271Z,10.19
2018-12-23T17:37:58.686Z,10.27
2018-12-23T17:39:29.110Z,10.28
2018-12-23T17:40:59.321Z,10.28
2018-12-23T17:42:29.349Z,10.30
2018-12-23T17:43:59.683Z,10.37
2018-12-23T17:45:29.879Z,10.41
2018-12-23T17:47:00.131Z,10.39
2018-12-23T17:48:30.356Z,10.42
2018-12-23T17:50:00.521Z,10.47
2018-12-23T17:51:30.706Z,10.52
2018-12-23T17:53:00.875Z,10.48
2018-12-23T17:54:31.084Z,10.47
2018-12-23T17:56:01.488Z,10.59
2018-12-23T17:57:31.735Z,10.65
2018-12-23T17:59:02.082Z,10.64
2018-12-23T18:00:32.423Z,10.67
2018-12-23T18:02:02.656Z,10.74
2018-12-23T18:03:32.857Z,10.74
2018-12-23T18:05:03.394Z,10.74
2018-12-23T18:06:33.612Z,10.77
2018-12-23T18:08:03.903Z,10.87
2018-12-23T18:09:34.121Z,10.82
2018-12-23T18:11:04.335Z,10.81
2018-12-23T18:12:34.906Z,10.86
2018-12-23T18:14:05.010Z,10.93
2018-12-23T18:15:35.152Z,10.93
2018-12-23T18:17:05.557Z,10.92
2018-12-23T18:18:35.785Z,10.94
2018-12-23T18:20:06.359Z,10.90
2018-12-23T18:21:36.860Z,10.94
2018-12-23T18:23:07.096Z,11.05
2018-12-23T18:24:37.295Z,11.03
2018-12-23T18:26:07.543Z,11.07
2018-12-23T18:27:37.703Z,11.09
2018-12-23T18:29:08.313Z,11.20
2018-12-23T18:30:38.507Z,11.22
2018-12-23T18:32:08.690Z,11.27
2018-12-23T18:33:38.728Z,11.29
2018-12-23T18:35:08.807Z,11.28
2018-12-23T18:36:39.057Z,11.28
2018-12-23T18:38:10.482Z,11.26
2018-12-23T18:47:27.997Z,11.30
2018-12-23T18:48:58.198Z,11.22
2018-12-23T18:50:28.401Z,11.24
2018-12-23T18:51:58.589Z,11.33
2018-12-23T18:53:28.858Z,11.38
2018-12-23T18:54:59.029Z,11.39
2018-12-23T18:56:37.278Z,11.43
2018-12-23T18:58:07.386Z,11.53
2018-12-23T18:59:43.835Z,11.52
2018-12-23T19:01:15.493Z,11.53
2018-12-23T19:02:48.618Z,11.53
2018-12-23T19:04:18.836Z,11.62
2018-12-23T19:05:49.071Z,11.64
2018-12-23T19:07:21.262Z,11.68
2018-12-23T19:09:22.360Z,11.62
2018-12-23T19:11:29.688Z,11.65
2018-12-23T19:13:28.697Z,11.73
2018-12-23T19:15:29.986Z,11.66
2018-12-23T19:17:25.340Z,11.65
2018-12-23T19:19:33.422Z,11.66
2018-12-23T19:21:40.994Z,11.72
2018-12-23T19:24:00.456Z,11.75
2018-12-23T19:26:11.498Z,11.75
2018-12-23T19:27:58.578Z,11.71
2018-12-23T19:30:00.287Z,11.79
2018-12-23T19:31:58.867Z,11.83
2018-12-23T19:33:57.926Z,11.85
2018-12-23T19:35:52.498Z,11.81
2018-12-23T19:38:19.899Z,11.88
2018-12-23T19:40:37.679Z,11.93
2018-12-23T19:42:52.547Z,11.91
2018-12-23T19:45:15.047Z,11.92
2018-12-23T19:47:29.614Z,11.93
2018-12-23T19:49:26.911Z,11.93
2018-12-23T19:52:00.159Z,11.93
2018-12-23T19:53:48.016Z,11.94
2018-12-23T19:55:36.231Z,12.00
2018-12-23T19:57:49.890Z,12.02
2018-12-23T19:59:47.624Z,12.00
2018-12-23T20:01:59.666Z,12.08
2018-12-23T20:04:24.092Z,12.08
2018-12-23T20:06:39.005Z,12.04
2018-12-23T20:08:56.374Z,12.00
2018-12-23T20:10:58.919Z,12.00
2018-12-23T20:13:20.385Z,12.03
2018-12-23T20:15:01.207Z,12.05
2018-12-23T20:17:09.014Z,12.15
2018-12-23T20:19:22.193Z,12.14
2018-12-23T20:21:24.055Z,12.23
2018-12-23T20:23:36.017Z,12.25
2018-12-23T20:25:35.932Z,12.26
2018-12-23T20:27:50.425Z,12.22
2018-12-23T20:30:08.447Z,12.28
2018-12-23T20:32:29.236Z,12.20
2018-12-23T20:34:13.914Z,12.24
2018-12-23T20:36:13.567Z,12.31
2018-12-23T20:38:28.568Z,12.34
2018-12-23T20:40:36.500Z,12.34
2018-12-23T20:42:43.294Z,12.29
2018-12-23T20:44:44.969Z,12.31
2018-12-23T20:46:43.292Z,12.27
2018-12-23T20:49:10.363Z,12.34
2018-12-23T20:51:20.881Z,12.32
2018-12-23T20:53:27.732Z,12.36
2018-12-23T20:55:46.208Z,12.31
2018-12-23T20:57:57.189Z,12.35
2018-12-23T21:00:36.588Z,12.35
2018-12-23T21:02:43.809Z,12.38
2018-12-23T21:04:44.926Z,12.38